Decoded Metar for OIBB (BUSHEHR in IRAN) (IATA:BUZ) | Meteo·Mobile Aviation Weather
aviador You're here:

OIBB Decoded Metar

BUSHEHR in IRAN
Report Time2018-08-22 05:30:00
UTC Time2018-08-22 05:36:40
Flight Rules mvfr MVFR
Wind220° at 08 kt
W.Decomp.*RWY 13: 0.4 kt HW 8.0 kt RCW
W.Rank220° ranks 29
Current wind is below 220° avg. (8.3)
Visibility6000 m
Phenomena:N/A
Clouds:N/A
Expected CloudBase > 4,400 ft AGL from Temp-Dew spread
CeilingNone
Temp35°C (ISA +20)
Dew Point24°C (53% RH)
Heat Index41.9°C
QNH0999 hPa
Density Alt3,209 ft
Elevation62 ft
Report Wrong Elevation
Raw Report
METAR OIBB 220530Z 22008KT 6000 NSC 35/24 Q0999 A2950=

Extra information for OIBB:More info

Metar Taf Metar & Taf Last 4 Metars F.Rules Stats Wind Profile Meteogram Temp Stats Airport Information Weather charts Add Link Nearby VenuesMetar ALERT Operation Metar Decoded Social comments